createdAt,value
2023-04-27T00:03:08.516Z,8.90
2023-04-27T00:07:14.042Z,6.90
2023-04-27T00:11:22.967Z,5.30
2023-04-27T00:15:26.100Z,8.50
2023-04-27T00:19:30.900Z,7.80
2023-04-27T00:23:34.190Z,7.10
2023-04-27T00:27:37.100Z,6.50
2023-04-27T00:31:45.344Z,6.60
2023-04-27T00:35:48.401Z,6.90
2023-04-27T00:39:51.646Z,6.00
2023-04-27T00:43:54.620Z,6.70
2023-04-27T00:48:00.465Z,5.40
2023-04-27T00:52:03.666Z,8.00
2023-04-27T00:56:08.246Z,6.60
2023-04-27T01:00:12.347Z,7.70
2023-04-27T01:04:17.359Z,5.10
2023-04-27T01:08:20.525Z,6.20
2023-04-27T01:12:24.617Z,5.60
2023-04-27T01:16:27.529Z,7.40
2023-04-27T01:20:30.595Z,6.40
2023-04-27T01:24:35.494Z,5.70
2023-04-27T01:28:40.918Z,5.70
2023-04-27T01:32:44.003Z,6.70
2023-04-27T01:36:46.882Z,7.70
2023-04-27T01:40:50.837Z,6.80
2023-04-27T01:44:54.885Z,5.90
2023-04-27T01:48:58.359Z,6.70
2023-04-27T01:53:01.339Z,7.30
2023-04-27T01:57:18.184Z,7.70
2023-04-27T02:01:21.619Z,5.90
2023-04-27T02:05:24.545Z,6.60
2023-04-27T02:09:27.604Z,6.80
2023-04-27T02:13:30.578Z,6.20
2023-04-27T02:17:36.492Z,5.70
2023-04-27T02:22:05.057Z,5.40
2023-04-27T02:26:18.604Z,5.30
2023-04-27T02:30:22.878Z,5.60
2023-04-27T02:34:32.545Z,6.10
2023-04-27T02:38:35.386Z,5.90
2023-04-27T02:42:39.575Z,7.30
2023-04-27T02:46:49.410Z,5.80
2023-04-27T02:50:52.364Z,6.70
2023-04-27T02:54:55.306Z,6.70
2023-04-27T02:58:58.339Z,5.80
2023-04-27T03:03:03.021Z,5.50
2023-04-27T03:07:08.352Z,5.30
2023-04-27T03:11:14.604Z,5.00
2023-04-27T03:15:17.585Z,4.30
2023-04-27T03:19:37.959Z,4.70
2023-04-27T03:23:41.391Z,6.70
2023-04-27T03:27:44.385Z,5.20
2023-04-27T03:31:47.202Z,5.30
2023-04-27T03:35:57.484Z,5.00
2023-04-27T03:40:00.945Z,6.10
2023-04-27T03:44:05.071Z,5.60
2023-04-27T03:48:08.241Z,5.80
2023-04-27T03:52:19.059Z,5.00
2023-04-27T03:56:22.577Z,5.30
2023-04-27T04:00:25.454Z,5.30
2023-04-27T04:04:29.701Z,5.40
2023-04-27T04:08:35.030Z,7.10
2023-04-27T04:13:05.880Z,8.20
2023-04-27T04:17:11.657Z,9.10
2023-04-27T04:21:19.917Z,7.30
2023-04-27T04:25:22.770Z,6.00
2023-04-27T04:29:25.746Z,6.80
2023-04-27T04:33:28.584Z,6.10
2023-04-27T04:37:35.536Z,5.80
2023-04-27T04:41:39.071Z,5.90
2023-04-27T04:45:42.875Z,6.40
2023-04-27T04:49:45.888Z,5.70
2023-04-27T04:53:50.240Z,4.80
2023-04-27T04:57:55.764Z,7.80
2023-04-27T05:01:58.791Z,6.60
2023-04-27T05:06:05.667Z,5.80
2023-04-27T05:10:08.962Z,5.70
2023-04-27T05:14:14.027Z,5.40
2023-04-27T05:18:17.320Z,5.10
2023-04-27T05:22:22.146Z,7.20
2023-04-27T05:26:25.847Z,5.20
2023-04-27T05:30:29.190Z,6.40
2023-04-27T05:34:33.394Z,5.70
2023-04-27T05:38:40.401Z,5.20
2023-04-27T05:42:46.963Z,5.20
2023-04-27T05:46:51.905Z,7.70
2023-04-27T05:51:04.653Z,9.60
2023-04-27T05:55:08.379Z,7.80
2023-04-27T05:59:12.377Z,8.30
2023-04-27T06:03:16.073Z,8.60
2023-04-27T06:07:19.472Z,11.20
2023-04-27T06:11:23.966Z,11.30
2023-04-27T06:15:27.260Z,11.60
2023-04-27T06:19:30.536Z,9.20
2023-04-27T06:23:34.123Z,10.40
2023-04-27T06:27:39.439Z,8.60
2023-04-27T06:31:42.775Z,11.60
2023-04-27T06:35:47.718Z,10.20
2023-04-27T06:39:51.886Z,7.60
2023-04-27T06:43:56.278Z,7.30
2023-04-27T06:52:05.342Z,5.70
2023-04-27T06:56:12.267Z,6.60
2023-04-27T07:00:15.591Z,6.00
2023-04-27T07:04:18.852Z,5.90
2023-04-27T07:08:22.157Z,5.60
2023-04-27T07:12:25.432Z,5.40
2023-04-27T07:16:28.762Z,5.70
2023-04-27T07:20:33.322Z,7.70
2023-04-27T07:24:37.783Z,8.50
2023-04-27T07:28:41.779Z,6.40
2023-04-27T07:32:45.065Z,5.20
2023-04-27T07:36:49.246Z,7.10
2023-04-27T07:40:52.957Z,6.70
2023-04-27T07:44:57.348Z,5.90
2023-04-27T07:49:02.546Z,5.90
2023-04-27T07:53:06.614Z,7.20
2023-04-27T07:57:13.867Z,6.10
2023-04-27T08:01:20.154Z,6.00
2023-04-27T08:05:27.277Z,5.80
2023-04-27T08:09:31.661Z,6.00
2023-04-27T08:13:36.371Z,7.30
2023-04-27T08:17:42.600Z,6.00
2023-04-27T08:25:48.880Z,6.70
2023-04-27T08:29:51.957Z,5.90
2023-04-27T08:33:57.460Z,6.50
2023-04-27T08:38:00.756Z,6.10
2023-04-27T08:42:12.780Z,6.90
2023-04-27T08:46:24.184Z,6.40
2023-04-27T08:50:28.256Z,5.80
2023-04-27T08:54:32.093Z,5.40
2023-04-27T08:58:39.610Z,4.40
2023-04-27T09:02:47.424Z,5.80
2023-04-27T09:06:51.658Z,5.70
2023-04-27T09:10:55.985Z,5.20
2023-04-27T09:15:06.460Z,5.00
2023-04-27T09:19:10.655Z,5.30
2023-04-27T09:23:31.748Z,4.50
2023-04-27T09:27:37.992Z,5.30
2023-04-27T09:31:42.368Z,6.00
2023-04-27T09:35:46.625Z,5.60
2023-04-27T09:39:50.780Z,6.70
2023-04-27T09:43:57.680Z,6.10
2023-04-27T09:48:02.296Z,5.50
2023-04-27T09:52:05.996Z,5.00
2023-04-27T09:56:31.557Z,4.90
2023-04-27T10:00:42.940Z,6.30
2023-04-27T10:05:10.385Z,6.10
2023-04-27T10:09:13.734Z,5.10
2023-04-27T10:13:26.349Z,5.90
2023-04-27T10:17:32.365Z,7.90
2023-04-27T10:21:35.591Z,7.00
2023-04-27T10:25:41.084Z,6.70
2023-04-27T10:29:46.258Z,7.40
